sensor_id;sensor_type;location;lat;lon;timestamp;P1;P4;P2;P0;N10;N4;N25;N1;N05;TS
67700;SPS30;55380;54.156;18.708;2023-05-15T00:00:00;19.6;;19.6;18.6;;;;;;
67700;SPS30;55380;54.156;18.708;2023-05-15T00:02:00;19.6;;19.6;18.5;;;;;;
67700;SPS30;55380;54.156;18.708;2023-05-15T00:04:00;18.6;;18.6;17.6;;;;;;
67700;SPS30;55380;54.156;18.708;2023-05-15T00:06:00;19.1;;19.1;18.1;;;;;;
67700;SPS30;55380;54.156;18.708;2023-05-15T00:08:00;19.0;;19.0;18.0;;;;;;
67700;SPS30;55380;54.156;18.708;2023-05-15T00:10:00;19.0;;19.0;18.0;;;;;;
67700;SPS30;55380;54.156;18.708;2023-05-15T00:12:00;18.2;;18.2;17.2;;;;;;
67700;SPS30;55380;54.156;18.708;2023-05-15T00:14:00;18.9;;18.9;17.9;;;;;;
67700;SPS30;55380;54.156;18.708;2023-05-15T00:16:00;18.8;;18.8;17.8;;;;;;
67700;SPS30;55380;54.156;18.708;2023-05-15T00:18:00;19.5;;19.5;18.4;;;;;;
67700;SPS30;55380;54.156;18.708;2023-05-15T00:20:00;19.2;;19.2;18.2;;;;;;
67700;SPS30;55380;54.156;18.708;2023-05-15T00:22:00;19.6;;19.6;18.6;;;;;;
67700;SPS30;55380;54.156;18.708;2023-05-15T00:24:00;19.4;;19.4;18.3;;;;;;
67700;SPS30;55380;54.156;18.708;2023-05-15T00:26:00;18.7;;18.7;17.7;;;;;;
67700;SPS30;55380;54.156;18.708;2023-05-15T00:28:00;18.7;;18.7;17.7;;;;;;
67700;SPS30;55380;54.156;18.708;2023-05-15T00:30:00;18.6;;18.6;17.6;;;;;;
67700;SPS30;55380;54.156;18.708;2023-05-15T00:32:00;19.4;;19.4;18.3;;;;;;
67700;SPS30;55380;54.156;18.708;2023-05-15T00:34:00;18.8;;18.8;17.8;;;;;;
67700;SPS30;55380;54.156;18.708;2023-05-15T00:36:00;18.3;;18.3;17.3;;;;;;
67700;SPS30;55380;54.156;18.708;2023-05-15T00:38:00;17.9;;17.9;17.0;;;;;;
67700;SPS30;55380;54.156;18.708;2023-05-15T00:40:00;18.0;;18.0;17.0;;;;;;
67700;SPS30;55380;54.156;18.708;2023-05-15T00:42:00;18.4;;18.4;17.4;;;;;;
67700;SPS30;55380;54.156;18.708;2023-05-15T00:44:00;18.4;;18.4;17.4;;;;;;
67700;SPS30;55380;54.156;18.708;2023-05-15T00:46:00;18.1;;18.1;17.1;;;;;;
67700;SPS30;55380;54.156;18.708;2023-05-15T00:48:00;17.7;;17.7;16.7;;;;;;
67700;SPS30;55380;54.156;18.708;2023-05-15T00:50:00;18.0;;18.0;17.0;;;;;;
67700;SPS30;55380;54.156;18.708;2023-05-15T00:52:00;18.2;;18.2;17.2;;;;;;
67700;SPS30;55380;54.156;18.708;2023-05-15T00:54:00;17.8;;17.8;16.8;;;;;;
67700;SPS30;55380;54.156;18.708;2023-05-15T00:56:00;17.9;;17.9;17.0;;;;;;
67700;SPS30;55380;54.156;18.708;2023-05-15T00:58:00;17.9;;17.9;16.9;;;;;;
67700;SPS30;55380;54.156;18.708;2023-05-15T01:00:00;17.3;;17.3;16.3;;;;;;
67700;SPS30;55380;54.156;18.708;2023-05-15T01:02:00;17.1;;17.1;16.2;;;;;;
67700;SPS30;55380;54.156;18.708;2023-05-15T01:04:00;17.7;;17.7;16.7;;;;;;
67700;SPS30;55380;54.156;18.708;2023-05-15T01:06:00;17.1;;17.1;16.2;;;;;;
67700;SPS30;55380;54.156;18.708;2023-05-15T01:08:03;17.3;;17.3;16.3;;;;;;
67700;SPS30;55380;54.156;18.708;2023-05-15T01:10:00;17.4;;17.4;16.5;;;;;;
67700;SPS30;55380;54.156;18.708;2023-05-15T01:12:00;17.2;;17.2;16.2;;;;;;
67700;SPS30;55380;54.156;18.708;2023-05-15T01:14:01;16.5;;16.5;15.6;;;;;;
67700;SPS30;55380;54.156;18.708;2023-05-15T01:16:00;17.4;;17.4;16.5;;;;;;
67700;SPS30;55380;54.156;18.708;2023-05-15T01:18:00;17.1;;17.1;16.2;;;;;;
67700;SPS30;55380;54.156;18.708;2023-05-15T01:20:00;17.0;;17.0;16.1;;;;;;
67700;SPS30;55380;54.156;18.708;2023-05-15T01:22:09;16.4;;16.4;15.5;;;;;;
67700;SPS30;55380;54.156;18.708;2023-05-15T01:24:03;16.8;;16.8;15.8;;;;;;
67700;SPS30;55380;54.156;18.708;2023-05-15T01:28:01;16.5;;16.5;15.6;;;;;;
67700;SPS30;55380;54.156;18.708;2023-05-15T01:30:03;16.6;;16.6;15.7;;;;;;
67700;SPS30;55380;54.156;18.708;2023-05-15T01:32:01;16.2;;16.2;15.3;;;;;;
67700;SPS30;55380;54.156;18.708;2023-05-15T01:34:01;16.2;;16.2;15.3;;;;;;
67700;SPS30;55380;54.156;18.708;2023-05-15T01:36:02;16.2;;16.2;15.3;;;;;;
67700;SPS30;55380;54.156;18.708;2023-05-15T01:38:02;16.5;;16.5;15.6;;;;;;
67700;SPS30;55380;54.156;18.708;2023-05-15T01:40:01;16.6;;16.6;15.7;;;;;;
67700;SPS30;55380;54.156;18.708;2023-05-15T01:42:01;16.8;;16.8;15.9;;;;;;
67700;SPS30;55380;54.156;18.708;2023-05-15T01:44:04;15.8;;15.8;14.9;;;;;;
67700;SPS30;55380;54.156;18.708;2023-05-15T01:46:00;16.0;;16.0;15.1;;;;;;
67700;SPS30;55380;54.156;18.708;2023-05-15T01:48:00;15.9;;15.9;15.0;;;;;;
67700;SPS30;55380;54.156;18.708;2023-05-15T01:50:00;15.8;;15.8;15.0;;;;;;
67700;SPS30;55380;54.156;18.708;2023-05-15T01:52:01;15.5;;15.5;14.6;;;;;;
67700;SPS30;55380;54.156;18.708;2023-05-15T01:54:00;15.4;;15.4;14.5;;;;;;
67700;SPS30;55380;54.156;18.708;2023-05-15T01:56:01;15.1;;15.1;14.3;;;;;;
67700;SPS30;55380;54.156;18.708;2023-05-15T01:58:00;15.5;;15.5;14.7;;;;;;
67700;SPS30;55380;54.156;18.708;2023-05-15T02:00:00;15.7;;15.7;14.8;;;;;;
67700;SPS30;55380;54.156;18.708;2023-05-15T02:02:00;15.4;;15.4;14.6;;;;;;
67700;SPS30;55380;54.156;18.708;2023-05-15T02:04:00;15.3;;15.3;14.5;;;;;;
67700;SPS30;55380;54.156;18.708;2023-05-15T02:06:00;15.4;;15.4;14.6;;;;;;
67700;SPS30;55380;54.156;18.708;2023-05-15T02:08:00;15.6;;15.6;14.8;;;;;;
67700;SPS30;55380;54.156;18.708;2023-05-15T02:10:00;15.4;;15.4;14.5;;;;;;
67700;SPS30;55380;54.156;18.708;2023-05-15T02:12:00;14.4;;14.4;13.6;;;;;;
67700;SPS30;55380;54.156;18.708;2023-05-15T02:14:00;15.1;;15.1;14.3;;;;;;
67700;SPS30;55380;54.156;18.708;2023-05-15T02:16:00;15.9;;15.9;15.1;;;;;;
67700;SPS30;55380;54.156;18.708;2023-05-15T02:18:00;15.4;;15.4;14.6;;;;;;
67700;SPS30;55380;54.156;18.708;2023-05-15T02:20:00;15.7;;15.7;14.8;;;;;;
67700;SPS30;55380;54.156;18.708;2023-05-15T02:22:00;15.4;;15.4;14.5;;;;;;
67700;SPS30;55380;54.156;18.708;2023-05-15T02:24:00;15.2;;15.2;14.3;;;;;;
67700;SPS30;55380;54.156;18.708;2023-05-15T02:26:05;15.4;;15.4;14.6;;;;;;
67700;SPS30;55380;54.156;18.708;2023-05-15T02:28:00;15.4;;15.4;14.5;;;;;;
67700;SPS30;55380;54.156;18.708;2023-05-15T02:30:02;15.6;;15.6;14.8;;;;;;
67700;SPS30;55380;54.156;18.708;2023-05-15T02:32:04;15.8;;15.8;15.0;;;;;;
67700;SPS30;55380;54.156;18.708;2023-05-15T02:34:02;14.8;;14.8;14.0;;;;;;
67700;SPS30;55380;54.156;18.708;2023-05-15T02:36:01;15.0;;15.0;14.2;;;;;;
67700;SPS30;55380;54.156;18.708;2023-05-15T02:38:01;14.6;;14.6;13.8;;;;;;
67700;SPS30;55380;54.156;18.708;2023-05-15T02:40:00;14.7;;14.7;13.9;;;;;;
67700;SPS30;55380;54.156;18.708;2023-05-15T02:42:00;15.4;;15.4;14.6;;;;;;
67700;SPS30;55380;54.156;18.708;2023-05-15T02:44:00;15.4;;15.4;14.5;;;;;;
67700;SPS30;55380;54.156;18.708;2023-05-15T02:46:00;15.2;;15.2;14.4;;;;;;
67700;SPS30;55380;54.156;18.708;2023-05-15T02:48:00;14.9;;14.9;14.1;;;;;;
67700;SPS30;55380;54.156;18.708;2023-05-15T02:50:00;15.4;;15.4;14.6;;;;;;
67700;SPS30;55380;54.156;18.708;2023-05-15T02:52:00;16.1;;16.1;15.2;;;;;;
67700;SPS30;55380;54.156;18.708;2023-05-15T02:54:00;15.4;;15.4;14.6;;;;;;
67700;SPS30;55380;54.156;18.708;2023-05-15T02:56:00;15.5;;15.5;14.7;;;;;;
67700;SPS30;55380;54.156;18.708;2023-05-15T02:58:00;15.1;;15.1;14.3;;;;;;
67700;SPS30;55380;54.156;18.708;2023-05-15T03:00:00;15.3;;15.3;14.5;;;;;;
67700;SPS30;55380;54.156;18.708;2023-05-15T03:02:00;15.7;;15.7;14.9;;;;;;
67700;SPS30;55380;54.156;18.708;2023-05-15T03:04:00;14.9;;14.9;14.1;;;;;;
67700;SPS30;55380;54.156;18.708;2023-05-15T03:06:00;15.8;;15.8;14.9;;;;;;
67700;SPS30;55380;54.156;18.708;2023-05-15T03:08:00;15.6;;15.6;14.8;;;;;;
67700;SPS30;55380;54.156;18.708;2023-05-15T03:10:00;16.1;;16.1;15.2;;;;;;
67700;SPS30;55380;54.156;18.708;2023-05-15T03:12:00;16.2;;16.2;15.3;;;;;;
67700;SPS30;55380;54.156;18.708;2023-05-15T03:14:00;15.7;;15.7;14.9;;;;;;
67700;SPS30;55380;54.156;18.708;2023-05-15T03:16:00;16.7;;16.7;15.8;;;;;;
67700;SPS30;55380;54.156;18.708;2023-05-15T03:18:00;15.7;;15.7;14.8;;;;;;
67700;SPS30;55380;54.156;18.708;2023-05-15T03:20:00;15.9;;15.9;15.0;;;;;;
67700;SPS30;55380;54.156;18.708;2023-05-15T03:22:00;15.9;;15.9;15.0;;;;;;
67700;SPS30;55380;54.156;18.708;2023-05-15T03:24:00;15.5;;15.5;14.7;;;;;;
67700;SPS30;55380;54.156;18.708;2023-05-15T03:26:00;15.7;;15.7;14.9;;;;;;
67700;SPS30;55380;54.156;18.708;2023-05-15T03:28:00;15.5;;15.5;14.6;;;;;;
67700;SPS30;55380;54.156;18.708;2023-05-15T03:30:00;15.9;;15.9;15.0;;;;;;
67700;SPS30;55380;54.156;18.708;2023-05-15T03:32:00;14.6;;14.6;13.8;;;;;;
67700;SPS30;55380;54.156;18.708;2023-05-15T03:34:00;15.4;;15.4;14.6;;;;;;
67700;SPS30;55380;54.156;18.708;2023-05-15T03:36:00;15.4;;15.4;14.5;;;;;;
67700;SPS30;55380;54.156;18.708;2023-05-15T03:38:00;15.5;;15.5;14.6;;;;;;
67700;SPS30;55380;54.156;18.708;2023-05-15T03:40:00;15.8;;15.8;14.9;;;;;;
67700;SPS30;55380;54.156;18.708;2023-05-15T03:42:00;16.0;;16.0;15.1;;;;;;
67700;SPS30;55380;54.156;18.708;2023-05-15T03:44:00;16.6;;16.6;15.7;;;;;;
67700;SPS30;55380;54.156;18.708;2023-05-15T03:46:00;17.0;;17.0;16.1;;;;;;
67700;SPS30;55380;54.156;18.708;2023-05-15T03:48:00;15.7;;15.7;14.8;;;;;;
67700;SPS30;55380;54.156;18.708;2023-05-15T03:50:00;16.8;;16.8;15.9;;;;;;
67700;SPS30;55380;54.156;18.708;2023-05-15T03:52:00;16.2;;16.2;15.4;;;;;;
67700;SPS30;55380;54.156;18.708;2023-05-15T03:54:00;16.7;;16.7;15.8;;;;;;
67700;SPS30;55380;54.156;18.708;2023-05-15T03:56:00;16.8;;16.8;15.9;;;;;;
67700;SPS30;55380;54.156;18.708;2023-05-15T03:58:00;18.2;;18.2;17.2;;;;;;
67700;SPS30;55380;54.156;18.708;2023-05-15T04:00:00;17.2;;17.2;16.3;;;;;;
67700;SPS30;55380;54.156;18.708;2023-05-15T04:02:00;17.1;;17.1;16.2;;;;;;
67700;SPS30;55380;54.156;18.708;2023-05-15T04:04:00;17.1;;17.1;16.2;;;;;;
67700;SPS30;55380;54.156;18.708;2023-05-15T04:06:00;17.7;;17.7;16.8;;;;;;
67700;SPS30;55380;54.156;18.708;2023-05-15T04:08:00;16.3;;16.3;15.5;;;;;;
67700;SPS30;55380;54.156;18.708;2023-05-15T04:10:00;16.7;;16.7;15.8;;;;;;
67700;SPS30;55380;54.156;18.708;2023-05-15T04:12:00;17.2;;17.2;16.2;;;;;;
67700;SPS30;55380;54.156;18.708;2023-05-15T04:14:00;16.4;;16.4;15.5;;;;;;
67700;SPS30;55380;54.156;18.708;2023-05-15T04:16:00;16.6;;16.6;15.7;;;;;;
67700;SPS30;55380;54.156;18.708;2023-05-15T04:18:00;16.4;;16.4;15.5;;;;;;
67700;SPS30;55380;54.156;18.708;2023-05-15T04:20:00;16.8;;16.8;15.9;;;;;;
67700;SPS30;55380;54.156;18.708;2023-05-15T04:22:00;16.1;;16.1;15.3;;;;;;
67700;SPS30;55380;54.156;18.708;2023-05-15T04:24:00;16.2;;16.2;15.3;;;;;;
67700;SPS30;55380;54.156;18.708;2023-05-15T04:26:00;16.8;;16.8;15.9;;;;;;
67700;SPS30;55380;54.156;18.708;2023-05-15T04:28:00;16.5;;16.5;15.6;;;;;;
67700;SPS30;55380;54.156;18.708;2023-05-15T04:30:00;16.1;;16.1;15.2;;;;;;
67700;SPS30;55380;54.156;18.708;2023-05-15T04:32:00;16.1;;16.1;15.2;;;;;;
67700;SPS30;55380;54.156;18.708;2023-05-15T04:34:00;15.8;;15.8;15.0;;;;;;
67700;SPS30;55380;54.156;18.708;2023-05-15T04:36:00;15.4;;15.4;14.5;;;;;;
67700;SPS30;55380;54.156;18.708;2023-05-15T04:38:00;15.9;;15.9;15.1;;;;;;
67700;SPS30;55380;54.156;18.708;2023-05-15T04:40:00;16.3;;16.3;15.4;;;;;;
67700;SPS30;55380;54.156;18.708;2023-05-15T04:42:00;15.8;;15.8;14.9;;;;;;
67700;SPS30;55380;54.156;18.708;2023-05-15T04:44:00;15.9;;15.9;15.0;;;;;;
67700;SPS30;55380;54.156;18.708;2023-05-15T04:46:00;16.2;;16.2;15.3;;;;;;
67700;SPS30;55380;54.156;18.708;2023-05-15T04:48:00;16.0;;16.0;15.1;;;;;;
67700;SPS30;55380;54.156;18.708;2023-05-15T04:50:00;15.6;;15.6;14.7;;;;;;
67700;SPS30;55380;54.156;18.708;2023-05-15T04:52:00;15.9;;15.9;15.0;;;;;;
67700;SPS30;55380;54.156;18.708;2023-05-15T04:54:00;15.5;;15.5;14.7;;;;;;
67700;SPS30;55380;54.156;18.708;2023-05-15T04:56:00;15.8;;15.8;14.9;;;;;;
67700;SPS30;55380;54.156;18.708;2023-05-15T04:58:00;15.9;;15.9;15.0;;;;;;
67700;SPS30;55380;54.156;18.708;2023-05-15T05:00:00;15.4;;15.4;14.6;;;;;;
67700;SPS30;55380;54.156;18.708;2023-05-15T05:02:00;15.5;;15.5;14.6;;;;;;
67700;SPS30;55380;54.156;18.708;2023-05-15T05:04:00;15.6;;15.6;14.8;;;;;;
67700;SPS30;55380;54.156;18.708;2023-05-15T05:06:00;15.5;;15.5;14.6;;;;;;
67700;SPS30;55380;54.156;18.708;2023-05-15T05:08:00;15.2;;15.2;14.3;;;;;;
67700;SPS30;55380;54.156;18.708;2023-05-15T05:10:00;15.4;;15.4;14.6;;;;;;
67700;SPS30;55380;54.156;18.708;2023-05-15T05:12:00;15.9;;15.9;15.0;;;;;;
67700;SPS30;55380;54.156;18.708;2023-05-15T05:14:00;16.3;;16.3;15.4;;;;;;
67700;SPS30;55380;54.156;18.708;2023-05-15T05:16:00;16.4;;16.4;15.5;;;;;;
67700;SPS30;55380;54.156;18.708;2023-05-15T05:18:00;16.3;;16.3;15.4;;;;;;
67700;SPS30;55380;54.156;18.708;2023-05-15T05:20:00;17.2;;17.2;16.2;;;;;;
67700;SPS30;55380;54.156;18.708;2023-05-15T05:22:00;17.9;;17.9;16.9;;;;;;
67700;SPS30;55380;54.156;18.708;2023-05-15T05:24:00;21.4;;21.4;20.3;;;;;;
67700;SPS30;55380;54.156;18.708;2023-05-15T05:26:00;25.2;;25.2;23.8;;;;;;
67700;SPS30;55380;54.156;18.708;2023-05-15T05:28:00;22.3;;22.3;21.1;;;;;;
67700;SPS30;55380;54.156;18.708;2023-05-15T05:30:00;20.0;;20.0;18.9;;;;;;
67700;SPS30;55380;54.156;18.708;2023-05-15T05:32:00;18.2;;18.2;17.2;;;;;;
67700;SPS30;55380;54.156;18.708;2023-05-15T05:34:00;16.4;;16.4;15.5;;;;;;
67700;SPS30;55380;54.156;18.708;2023-05-15T05:36:00;15.5;;15.5;14.7;;;;;;
67700;SPS30;55380;54.156;18.708;2023-05-15T05:38:00;14.6;;14.6;13.8;;;;;;
67700;SPS30;55380;54.156;18.708;2023-05-15T05:40:00;14.8;;14.8;14.0;;;;;;
67700;SPS30;55380;54.156;18.708;2023-05-15T05:42:00;14.3;;14.3;13.5;;;;;;
67700;SPS30;55380;54.156;18.708;2023-05-15T05:44:00;14.2;;14.2;13.4;;;;;;
67700;SPS30;55380;54.156;18.708;2023-05-15T05:46:00;14.7;;14.7;13.9;;;;;;
67700;SPS30;55380;54.156;18.708;2023-05-15T05:48:00;14.0;;14.0;13.3;;;;;;
67700;SPS30;55380;54.156;18.708;2023-05-15T05:50:00;13.7;;13.7;13.0;;;;;;
67700;SPS30;55380;54.156;18.708;2023-05-15T05:52:04;14.0;;14.0;13.2;;;;;;
67700;SPS30;55380;54.156;18.708;2023-05-15T05:54:00;13.9;;13.9;13.2;;;;;;
67700;SPS30;55380;54.156;18.708;2023-05-15T05:56:00;13.0;;13.0;12.3;;;;;;
67700;SPS30;55380;54.156;18.708;2023-05-15T05:58:00;11.7;;11.7;11.1;;;;;;
67700;SPS30;55380;54.156;18.708;2023-05-15T06:00:00;12.6;;12.6;11.9;;;;;;
67700;SPS30;55380;54.156;18.708;2023-05-15T06:02:00;13.0;;13.0;12.3;;;;;;
67700;SPS30;55380;54.156;18.708;2023-05-15T06:04:00;15.2;;15.2;14.3;;;;;;
67700;SPS30;55380;54.156;18.708;2023-05-15T06:06:00;14.0;;14.0;13.2;;;;;;
67700;SPS30;55380;54.156;18.708;2023-05-15T06:08:00;14.2;;14.2;13.4;;;;;;
67700;SPS30;55380;54.156;18.708;2023-05-15T06:10:00;15.7;;15.7;14.8;;;;;;
67700;SPS30;55380;54.156;18.708;2023-05-15T06:12:00;13.7;;13.7;13.0;;;;;;
67700;SPS30;55380;54.156;18.708;2023-05-15T06:14:00;14.1;;14.1;13.3;;;;;;
67700;SPS30;55380;54.156;18.708;2023-05-15T06:16:00;14.5;;14.5;13.7;;;;;;
67700;SPS30;55380;54.156;18.708;2023-05-15T06:18:00;15.7;;15.7;14.9;;;;;;
67700;SPS30;55380;54.156;18.708;2023-05-15T06:20:00;16.7;;16.7;15.8;;;;;;
67700;SPS30;55380;54.156;18.708;2023-05-15T06:22:00;16.6;;16.6;15.7;;;;;;
67700;SPS30;55380;54.156;18.708;2023-05-15T06:24:00;17.6;;17.6;16.6;;;;;;
67700;SPS30;55380;54.156;18.708;2023-05-15T06:26:00;16.1;;16.1;15.2;;;;;;
67700;SPS30;55380;54.156;18.708;2023-05-15T06:28:00;13.8;;13.8;13.0;;;;;;
67700;SPS30;55380;54.156;18.708;2023-05-15T06:30:00;14.3;;14.3;13.5;;;;;;
67700;SPS30;55380;54.156;18.708;2023-05-15T06:32:00;14.3;;14.3;13.5;;;;;;
67700;SPS30;55380;54.156;18.708;2023-05-15T06:34:00;14.9;;14.9;14.1;;;;;;
67700;SPS30;55380;54.156;18.708;2023-05-15T06:36:00;15.2;;15.2;14.4;;;;;;
67700;SPS30;55380;54.156;18.708;2023-05-15T06:38:00;15.4;;15.4;14.5;;;;;;
67700;SPS30;55380;54.156;18.708;2023-05-15T06:40:00;15.2;;15.2;14.3;;;;;;
67700;SPS30;55380;54.156;18.708;2023-05-15T06:42:00;24.7;;24.7;23.4;;;;;;
67700;SPS30;55380;54.156;18.708;2023-05-15T06:44:00;19.4;;19.4;18.3;;;;;;
67700;SPS30;55380;54.156;18.708;2023-05-15T06:46:00;18.7;;18.7;17.6;;;;;;
67700;SPS30;55380;54.156;18.708;2023-05-15T06:48:00;16.6;;16.6;15.7;;;;;;
67700;SPS30;55380;54.156;18.708;2023-05-15T06:50:00;15.2;;15.2;14.4;;;;;;
67700;SPS30;55380;54.156;18.708;2023-05-15T06:52:00;14.4;;14.4;13.6;;;;;;
67700;SPS30;55380;54.156;18.708;2023-05-15T06:54:00;13.8;;13.8;13.0;;;;;;
67700;SPS30;55380;54.156;18.708;2023-05-15T06:56:00;13.3;;13.3;12.6;;;;;;
67700;SPS30;55380;54.156;18.708;2023-05-15T06:58:00;14.8;;14.8;14.0;;;;;;
67700;SPS30;55380;54.156;18.708;2023-05-15T07:00:00;14.4;;14.4;13.6;;;;;;
67700;SPS30;55380;54.156;18.708;2023-05-15T07:02:00;14.0;;14.0;13.2;;;;;;
67700;SPS30;55380;54.156;18.708;2023-05-15T07:04:00;13.8;;13.8;13.1;;;;;;
67700;SPS30;55380;54.156;18.708;2023-05-15T07:06:00;16.1;;16.1;15.3;;;;;;
67700;SPS30;55380;54.156;18.708;2023-05-15T07:08:00;17.8;;17.8;16.8;;;;;;
67700;SPS30;55380;54.156;18.708;2023-05-15T07:10:00;16.7;;16.7;15.8;;;;;;
67700;SPS30;55380;54.156;18.708;2023-05-15T07:12:00;20.3;;20.3;19.2;;;;;;
67700;SPS30;55380;54.156;18.708;2023-05-15T07:14:00;22.6;;22.6;21.3;;;;;;
67700;SPS30;55380;54.156;18.708;2023-05-15T07:16:00;19.7;;19.7;18.6;;;;;;
67700;SPS30;55380;54.156;18.708;2023-05-15T07:18:00;17.7;;17.7;16.7;;;;;;
67700;SPS30;55380;54.156;18.708;2023-05-15T07:20:00;16.2;;16.2;15.3;;;;;;
67700;SPS30;55380;54.156;18.708;2023-05-15T07:22:00;14.5;;14.5;13.7;;;;;;
67700;SPS30;55380;54.156;18.708;2023-05-15T07:24:00;13.2;;13.2;12.5;;;;;;
67700;SPS30;55380;54.156;18.708;2023-05-15T07:26:00;12.1;;12.1;11.5;;;;;;
67700;SPS30;55380;54.156;18.708;2023-05-15T07:28:00;10.6;;10.6;10.0;;;;;;
67700;SPS30;55380;54.156;18.708;2023-05-15T07:30:00;11.2;;11.2;10.6;;;;;;
67700;SPS30;55380;54.156;18.708;2023-05-15T07:32:00;10.9;;10.9;10.3;;;;;;
67700;SPS30;55380;54.156;18.708;2023-05-15T07:34:00;9.8;;9.8;9.3;;;;;;
67700;SPS30;55380;54.156;18.708;2023-05-15T07:36:00;10.5;;10.5;9.9;;;;;;
67700;SPS30;55380;54.156;18.708;2023-05-15T07:38:00;10.2;;10.2;9.6;;;;;;
67700;SPS30;55380;54.156;18.708;2023-05-15T07:40:00;10.8;;10.8;10.2;;;;;;
67700;SPS30;55380;54.156;18.708;2023-05-15T07:42:00;10.7;;10.7;10.1;;;;;;
67700;SPS30;55380;54.156;18.708;2023-05-15T07:44:00;10.7;;10.7;10.1;;;;;;
67700;SPS30;55380;54.156;18.708;2023-05-15T07:46:00;10.4;;10.4;9.8;;;;;;
67700;SPS30;55380;54.156;18.708;2023-05-15T07:50:00;11.0;;11.0;10.4;;;;;;
67700;SPS30;55380;54.156;18.708;2023-05-15T07:52:00;11.0;;11.0;10.4;;;;;;
67700;SPS30;55380;54.156;18.708;2023-05-15T07:54:00;11.1;;11.1;10.5;;;;;;
67700;SPS30;55380;54.156;18.708;2023-05-15T07:56:00;10.9;;10.9;10.3;;;;;;
67700;SPS30;55380;54.156;18.708;2023-05-15T07:58:00;11.0;;11.0;10.4;;;;;;
67700;SPS30;55380;54.156;18.708;2023-05-15T08:00:00;10.8;;10.8;10.2;;;;;;
67700;SPS30;55380;54.156;18.708;2023-05-15T08:02:00;10.6;;10.6;10.1;;;;;;
67700;SPS30;55380;54.156;18.708;2023-05-15T08:04:00;11.1;;11.1;10.5;;;;;;
67700;SPS30;55380;54.156;18.708;2023-05-15T08:06:00;11.1;;11.1;10.5;;;;;;
67700;SPS30;55380;54.156;18.708;2023-05-15T08:08:00;11.2;;11.2;10.6;;;;;;
67700;SPS30;55380;54.156;18.708;2023-05-15T08:10:00;10.7;;10.7;10.2;;;;;;
67700;SPS30;55380;54.156;18.708;2023-05-15T08:14:00;11.2;;11.2;10.6;;;;;;
67700;SPS30;55380;54.156;18.708;2023-05-15T08:16:00;11.4;;11.4;10.8;;;;;;
67700;SPS30;55380;54.156;18.708;2023-05-15T08:18:00;12.3;;12.3;11.6;;;;;;
67700;SPS30;55380;54.156;18.708;2023-05-15T08:20:00;11.4;;11.4;10.8;;;;;;
67700;SPS30;55380;54.156;18.708;2023-05-15T08:22:00;11.9;;11.9;11.3;;;;;;
67700;SPS30;55380;54.156;18.708;2023-05-15T08:24:00;11.8;;11.8;11.2;;;;;;
67700;SPS30;55380;54.156;18.708;2023-05-15T08:26:00;11.7;;11.7;11.0;;;;;;
67700;SPS30;55380;54.156;18.708;2023-05-15T08:28:00;11.8;;11.8;11.2;;;;;;
67700;SPS30;55380;54.156;18.708;2023-05-15T08:30:00;11.9;;11.9;11.3;;;;;;
67700;SPS30;55380;54.156;18.708;2023-05-15T08:32:00;11.8;;11.8;11.2;;;;;;
67700;SPS30;55380;54.156;18.708;2023-05-15T08:34:00;12.4;;12.4;11.8;;;;;;
67700;SPS30;55380;54.156;18.708;2023-05-15T08:36:00;11.7;;11.7;11.1;;;;;;
67700;SPS30;55380;54.156;18.708;2023-05-15T08:38:00;12.4;;12.4;11.8;;;;;;
67700;SPS30;55380;54.156;18.708;2023-05-15T08:40:00;12.9;;12.9;12.2;;;;;;
67700;SPS30;55380;54.156;18.708;2023-05-15T08:42:02;12.8;;12.8;12.1;;;;;;
67700;SPS30;55380;54.156;18.708;2023-05-15T08:44:00;12.3;;12.3;11.6;;;;;;
67700;SPS30;55380;54.156;18.708;2023-05-15T08:46:00;13.6;;13.6;12.9;;;;;;
67700;SPS30;55380;54.156;18.708;2023-05-15T08:48:00;13.5;;13.5;12.7;;;;;;
67700;SPS30;55380;54.156;18.708;2023-05-15T08:50:01;12.8;;12.8;12.1;;;;;;
67700;SPS30;55380;54.156;18.708;2023-05-15T08:52:00;13.3;;13.3;12.6;;;;;;
67700;SPS30;55380;54.156;18.708;2023-05-15T08:54:00;13.9;;13.9;13.1;;;;;;
67700;SPS30;55380;54.156;18.708;2023-05-15T08:56:00;13.5;;13.5;12.8;;;;;;
67700;SPS30;55380;54.156;18.708;2023-05-15T08:58:00;13.5;;13.5;12.8;;;;;;
67700;SPS30;55380;54.156;18.708;2023-05-15T09:00:00;12.6;;12.6;11.9;;;;;;
67700;SPS30;55380;54.156;18.708;2023-05-15T09:02:00;13.1;;13.1;12.4;;;;;;
67700;SPS30;55380;54.156;18.708;2023-05-15T09:04:00;12.7;;12.7;12.0;;;;;;
67700;SPS30;55380;54.156;18.708;2023-05-15T09:06:00;13.3;;13.3;12.5;;;;;;
67700;SPS30;55380;54.156;18.708;2023-05-15T09:08:00;13.4;;13.4;12.7;;;;;;
67700;SPS30;55380;54.156;18.708;2023-05-15T09:10:00;13.8;;13.8;13.0;;;;;;
67700;SPS30;55380;54.156;18.708;2023-05-15T09:12:00;13.5;;13.5;12.8;;;;;;
67700;SPS30;55380;54.156;18.708;2023-05-15T09:14:00;13.7;;13.7;13.0;;;;;;
67700;SPS30;55380;54.156;18.708;2023-05-15T09:16:00;13.6;;13.6;12.8;;;;;;
67700;SPS30;55380;54.156;18.708;2023-05-15T09:18:01;13.8;;13.8;13.0;;;;;;
67700;SPS30;55380;54.156;18.708;2023-05-15T09:20:00;14.9;;14.9;14.1;;;;;;
67700;SPS30;55380;54.156;18.708;2023-05-15T09:26:00;14.1;;14.1;13.4;;;;;;
67700;SPS30;55380;54.156;18.708;2023-05-15T09:28:00;13.8;;13.8;13.1;;;;;;
67700;SPS30;55380;54.156;18.708;2023-05-15T09:30:06;14.4;;14.4;13.6;;;;;;
67700;SPS30;55380;54.156;18.708;2023-05-15T09:32:01;13.9;;13.9;13.2;;;;;;
67700;SPS30;55380;54.156;18.708;2023-05-15T09:34:00;13.1;;13.1;12.4;;;;;;
67700;SPS30;55380;54.156;18.708;2023-05-15T09:36:00;13.1;;13.1;12.4;;;;;;
67700;SPS30;55380;54.156;18.708;2023-05-15T09:38:00;13.0;;13.0;12.3;;;;;;
67700;SPS30;55380;54.156;18.708;2023-05-15T09:40:08;13.6;;13.6;12.8;;;;;;
67700;SPS30;55380;54.156;18.708;2023-05-15T09:42:08;12.9;;12.9;12.2;;;;;;
67700;SPS30;55380;54.156;18.708;2023-05-15T09:44:00;13.6;;13.6;12.8;;;;;;
67700;SPS30;55380;54.156;18.708;2023-05-15T09:46:00;12.2;;12.2;11.5;;;;;;
67700;SPS30;55380;54.156;18.708;2023-05-15T09:48:02;11.8;;11.8;11.2;;;;;;
67700;SPS30;55380;54.156;18.708;2023-05-15T09:50:00;12.6;;12.6;11.9;;;;;;
67700;SPS30;55380;54.156;18.708;2023-05-15T09:52:00;12.5;;12.5;11.8;;;;;;
67700;SPS30;55380;54.156;18.708;2023-05-15T09:54:00;13.0;;13.0;12.3;;;;;;
67700;SPS30;55380;54.156;18.708;2023-05-15T09:56:00;11.6;;11.6;11.0;;;;;;
67700;SPS30;55380;54.156;18.708;2023-05-15T09:58:04;11.8;;11.8;11.1;;;;;;
67700;SPS30;55380;54.156;18.708;2023-05-15T10:00:00;11.8;;11.8;11.2;;;;;;
67700;SPS30;55380;54.156;18.708;2023-05-15T10:02:00;11.2;;11.2;10.6;;;;;;
67700;SPS30;55380;54.156;18.708;2023-05-15T10:04:01;11.4;;11.4;10.8;;;;;;
67700;SPS30;55380;54.156;18.708;2023-05-15T10:06:00;11.4;;11.4;10.8;;;;;;
67700;SPS30;55380;54.156;18.708;2023-05-15T10:08:00;12.3;;12.3;11.7;;;;;;
67700;SPS30;55380;54.156;18.708;2023-05-15T10:10:00;11.3;;11.3;10.7;;;;;;
67700;SPS30;55380;54.156;18.708;2023-05-15T10:12:00;9.9;;9.9;9.3;;;;;;
67700;SPS30;55380;54.156;18.708;2023-05-15T10:14:00;9.7;;9.7;9.2;;;;;;
67700;SPS30;55380;54.156;18.708;2023-05-15T10:16:00;9.3;;9.3;8.8;;;;;;
67700;SPS30;55380;54.156;18.708;2023-05-15T10:18:00;10.4;;10.4;9.8;;;;;;
67700;SPS30;55380;54.156;18.708;2023-05-15T10:20:00;11.3;;11.3;10.7;;;;;;
67700;SPS30;55380;54.156;18.708;2023-05-15T10:22:00;11.1;;11.1;10.5;;;;;;
67700;SPS30;55380;54.156;18.708;2023-05-15T10:24:00;11.0;;11.0;10.4;;;;;;
67700;SPS30;55380;54.156;18.708;2023-05-15T10:26:01;9.9;;9.9;9.4;;;;;;
67700;SPS30;55380;54.156;18.708;2023-05-15T10:28:00;10.1;;10.1;9.5;;;;;;
67700;SPS30;55380;54.156;18.708;2023-05-15T10:30:00;9.0;;9.0;8.6;;;;;;
67700;SPS30;55380;54.156;18.708;2023-05-15T10:32:00;9.5;;9.5;9.0;;;;;;
67700;SPS30;55380;54.156;18.708;2023-05-15T10:34:00;8.5;;8.5;8.1;;;;;;
67700;SPS30;55380;54.156;18.708;2023-05-15T10:36:00;8.9;;8.9;8.4;;;;;;
67700;SPS30;55380;54.156;18.708;2023-05-15T10:38:01;9.2;;9.2;8.7;;;;;;
67700;SPS30;55380;54.156;18.708;2023-05-15T10:40:00;7.8;;7.8;7.4;;;;;;
67700;SPS30;55380;54.156;18.708;2023-05-15T10:42:00;7.3;;7.3;6.9;;;;;;
67700;SPS30;55380;54.156;18.708;2023-05-15T10:44:00;8.7;;8.7;8.3;;;;;;
67700;SPS30;55380;54.156;18.708;2023-05-15T10:46:00;9.2;;9.1;8.6;;;;;;
67700;SPS30;55380;54.156;18.708;2023-05-15T10:48:00;8.9;;8.9;8.4;;;;;;
67700;SPS30;55380;54.156;18.708;2023-05-15T10:50:00;8.9;;8.9;8.4;;;;;;
67700;SPS30;55380;54.156;18.708;2023-05-15T10:52:00;8.3;;8.3;7.8;;;;;;
67700;SPS30;55380;54.156;18.708;2023-05-15T10:54:00;7.7;;7.7;7.3;;;;;;
67700;SPS30;55380;54.156;18.708;2023-05-15T10:56:01;7.1;;7.1;6.7;;;;;;